Time;durP1;ratioP1;P1;durP2;ratioP2;P2;SDS_P1;SDS_P2;PMS_P1;PMS_P2;Temp;Humidity;BMP_temperature;BMP_pressure;BME280_temperature;BME280_humidity;BME280_pressure;Samples;Min_cycle;Max_cycle;Signal;HPM_P1;HPM_P2
2021/12/31 00:00:12;;;;;;;18.67;5.05;;;12.30;99.90;;;;;;5128151;27;37163;-63
2021/12/31 00:02:40;;;;;;;18.95;3.35;;;12.30;99.90;;;;;;5128564;27;37743;-63
2021/12/31 00:05:09;;;;;;;15.50;3.25;;;12.30;99.90;;;;;;5128371;27;37765;-63
2021/12/31 00:07:37;;;;;;;20.02;3.33;;;12.30;99.90;;;;;;5127744;27;35382;-63
2021/12/31 00:10:05;;;;;;;16.58;2.85;;;12.30;99.90;;;;;;5128907;27;38544;-63
2021/12/31 00:12:35;;;;;;;13.77;3.17;;;12.30;99.90;;;;;;5128580;27;38503;-63
2021/12/31 00:15:04;;;;;;;17.35;4.65;;;12.30;99.90;;;;;;5128018;27;39212;-63
2021/12/31 00:17:31;;;;;;;16.98;4.05;;;12.30;99.90;;;;;;5128754;27;37629;-63
2021/12/31 00:20:01;;;;;;;21.02;3.63;;;12.20;99.90;;;;;;5127358;27;36661;-63
2021/12/31 00:25:10;;;;;;;12.85;2.70;;;12.20;99.90;;;;;;5128565;27;39388;-63
2021/12/31 00:27:38;;;;;;;19.02;3.15;;;12.20;99.90;;;;;;5128567;27;36146;-63
2021/12/31 00:30:07;;;;;;;15.93;3.03;;;12.20;99.90;;;;;;5127357;27;37180;-63
2021/12/31 00:32:34;;;;;;;16.33;3.00;;;12.20;99.90;;;;;;5128269;27;37775;-63
2021/12/31 00:35:02;;;;;;;21.13;4.35;;;12.20;99.90;;;;;;5127885;27;37567;-63
2021/12/31 00:37:31;;;;;;;17.67;3.20;;;12.10;99.90;;;;;;5127298;27;38339;-63
2021/12/31 00:39:59;;;;;;;23.10;4.43;;;12.10;99.90;;;;;;5127784;27;36598;-63
2021/12/31 00:42:26;;;;;;;23.08;4.45;;;12.10;99.90;;;;;;5128047;27;37530;-63
2021/12/31 00:44:55;;;;;;;21.80;4.03;;;12.10;99.90;;;;;;5127853;27;39047;-63
2021/12/31 00:47:22;;;;;;;20.30;3.40;;;12.00;99.90;;;;;;5128425;27;39106;-63
2021/12/31 00:49:49;;;;;;;16.85;3.30;;;12.10;99.90;;;;;;5127042;27;37757;-63
2021/12/31 00:52:17;;;;;;;18.90;3.85;;;12.10;99.90;;;;;;5127724;27;37958;-63
2021/12/31 00:54:44;;;;;;;22.63;4.10;;;12.10;99.90;;;;;;5126857;27;38262;-63
2021/12/31 00:57:12;;;;;;;20.92;3.80;;;12.10;99.90;;;;;;5126861;27;38767;-63
2021/12/31 00:59:40;;;;;;;16.35;3.65;;;12.10;99.90;;;;;;5126907;27;37804;-63
2021/12/31 01:02:11;;;;;;;18.00;3.78;;;12.10;99.90;;;;;;5127464;27;38745;-63
2021/12/31 01:04:39;;;;;;;15.73;3.78;;;12.10;99.90;;;;;;5128039;27;37473;-63
2021/12/31 01:07:07;;;;;;;23.73;3.38;;;12.10;99.90;;;;;;5127950;27;37234;-63
2021/12/31 01:09:35;;;;;;;17.48;3.42;;;12.10;99.90;;;;;;5127677;27;36574;-64
2021/12/31 01:12:05;;;;;;;22.17;3.47;;;12.10;99.90;;;;;;5127236;27;38625;-63
2021/12/31 01:14:35;;;;;;;19.60;3.67;;;12.10;99.90;;;;;;5128353;27;36471;-63
2021/12/31 01:17:07;;;;;;;17.92;4.22;;;12.10;99.90;;;;;;5126654;27;40321;-63
2021/12/31 01:19:47;;;;;;;22.17;4.07;;;12.10;99.90;;;;;;5126818;27;35111;-63
2021/12/31 01:22:16;;;;;;;20.42;3.90;;;12.10;99.90;;;;;;5127084;27;37682;-63
2021/12/31 01:24:43;;;;;;;18.20;3.72;;;12.10;99.90;;;;;;5126915;27;38551;-63
2021/12/31 01:27:12;;;;;;;15.82;3.50;;;12.10;99.90;;;;;;5127181;27;37217;-63
2021/12/31 01:29:39;;;;;;;17.65;3.78;;;12.10;99.90;;;;;;5127054;27;36502;-63
2021/12/31 01:32:08;;;;;;;17.67;4.15;;;12.10;99.90;;;;;;5126741;27;38348;-63
2021/12/31 01:34:37;;;;;;;18.85;3.58;;;12.20;99.90;;;;;;5127043;27;37976;-63
2021/12/31 01:37:04;;;;;;;17.08;3.63;;;12.20;99.90;;;;;;5126858;27;38298;-63
2021/12/31 01:39:32;;;;;;;15.60;3.10;;;12.20;99.90;;;;;;5127003;27;36278;-63
2021/12/31 01:42:00;;;;;;;20.15;3.88;;;12.20;99.90;;;;;;5124873;27;37791;-63
2021/12/31 01:44:36;;;;;;;24.35;4.72;;;12.20;99.90;;;;;;5126000;27;37637;-63
2021/12/31 01:47:08;;;;;;;19.17;3.72;;;12.30;99.90;;;;;;5126284;27;37558;-63
2021/12/31 01:49:40;;;;;;;18.48;4.40;;;12.30;99.90;;;;;;5129929;27;36443;-63
2021/12/31 01:52:09;;;;;;;18.73;3.90;;;12.30;99.90;;;;;;5130560;27;38839;-63
2021/12/31 01:54:37;;;;;;;19.48;3.67;;;12.30;99.90;;;;;;5130138;27;37461;-63
2021/12/31 01:57:07;;;;;;;13.73;3.60;;;12.30;99.90;;;;;;5130612;27;37393;-63
2021/12/31 01:59:37;;;;;;;16.50;3.67;;;12.30;99.90;;;;;;5130088;27;35308;-63
2021/12/31 02:02:07;;;;;;;15.02;3.08;;;12.30;99.90;;;;;;5128935;27;37277;-63
2021/12/31 02:04:35;;;;;;;19.67;4.18;;;12.40;99.90;;;;;;5131196;27;36550;-63
2021/12/31 02:07:04;;;;;;;19.67;3.13;;;12.40;99.90;;;;;;5130601;27;37506;-63
2021/12/31 02:09:36;;;;;;;18.17;3.35;;;12.40;99.90;;;;;;5130061;27;35195;-63
2021/12/31 02:12:05;;;;;;;15.63;3.88;;;12.40;99.90;;;;;;5130384;27;40007;-63
2021/12/31 02:14:34;;;;;;;16.05;4.32;;;12.40;99.90;;;;;;5131181;27;37678;-63
2021/12/31 02:17:07;;;;;;;17.23;3.45;;;12.40;99.90;;;;;;5130763;27;37520;-63
2021/12/31 02:19:34;;;;;;;25.23;4.10;;;12.40;99.90;;;;;;5130839;27;36522;-63
2021/12/31 02:22:04;;;;;;;15.27;3.00;;;12.40;99.90;;;;;;5130999;27;37931;-63
2021/12/31 02:24:31;;;;;;;20.55;3.67;;;12.40;99.90;;;;;;5128869;27;38695;-63
2021/12/31 02:26:59;;;;;;;18.50;3.70;;;12.40;99.90;;;;;;5130758;27;37459;-63
2021/12/31 02:29:27;;;;;;;12.52;3.30;;;12.40;99.90;;;;;;5130161;27;36732;-63
2021/12/31 02:31:54;;;;;;;19.52;3.58;;;12.40;99.90;;;;;;5129464;27;36244;-63
2021/12/31 02:34:22;;;;;;;15.82;3.20;;;12.40;99.90;;;;;;5130012;27;38855;-63
2021/12/31 02:36:49;;;;;;;16.40;3.45;;;12.40;99.90;;;;;;5130182;27;37462;-63
2021/12/31 02:39:18;;;;;;;13.32;2.75;;;12.40;99.90;;;;;;5130499;27;35688;-63
2021/12/31 02:41:45;;;;;;;17.00;3.90;;;12.40;99.90;;;;;;5130347;27;37768;-63
2021/12/31 02:44:13;;;;;;;17.17;2.90;;;12.40;99.90;;;;;;5130226;27;40067;-63
2021/12/31 02:46:40;;;;;;;15.65;2.90;;;12.40;99.90;;;;;;5130818;27;37345;-63
2021/12/31 02:49:07;;;;;;;13.65;3.13;;;12.40;99.90;;;;;;5129212;27;36758;-63
2021/12/31 02:51:35;;;;;;;14.45;3.55;;;12.40;99.90;;;;;;5129134;27;37614;-63
2021/12/31 02:54:08;;;;;;;14.07;2.72;;;12.40;99.90;;;;;;5129788;27;39807;-63
2021/12/31 02:56:36;;;;;;;15.32;3.13;;;12.40;99.90;;;;;;5129961;27;37402;-63
2021/12/31 02:59:04;;;;;;;14.98;2.80;;;12.40;99.90;;;;;;5129291;27;38493;-63
2021/12/31 03:01:32;;;;;;;15.35;3.30;;;12.50;99.90;;;;;;5128827;27;37695;-63
2021/12/31 03:04:00;;;;;;;19.65;3.70;;;12.40;99.90;;;;;;5129971;27;37555;-63
2021/12/31 03:06:29;;;;;;;20.48;3.17;;;12.40;99.90;;;;;;5129942;27;37607;-64
2021/12/31 03:08:58;;;;;;;17.13;3.17;;;12.40;99.90;;;;;;5130112;27;36201;-63
2021/12/31 03:11:27;;;;;;;12.68;2.85;;;12.40;99.90;;;;;;5129846;27;37580;-63
2021/12/31 03:13:59;;;;;;;15.80;3.05;;;12.50;99.90;;;;;;5129801;27;36399;-63
2021/12/31 03:16:26;;;;;;;13.07;3.30;;;12.50;99.90;;;;;;5130291;27;36206;-63
2021/12/31 03:18:55;;;;;;;16.27;3.88;;;12.50;99.90;;;;;;5129131;27;37515;-63
2021/12/31 03:21:22;;;;;;;11.15;2.30;;;12.50;99.90;;;;;;5129112;27;37668;-63
2021/12/31 03:23:52;;;;;;;13.32;2.63;;;12.50;99.90;;;;;;5129169;27;36646;-63
2021/12/31 03:26:20;;;;;;;15.70;2.97;;;12.50;99.90;;;;;;5129275;27;37544;-63
2021/12/31 03:28:47;;;;;;;19.38;3.67;;;12.50;99.90;;;;;;5129469;27;36404;-63
2021/12/31 03:31:16;;;;;;;13.95;2.97;;;12.50;99.90;;;;;;5129058;27;37668;-63
2021/12/31 03:33:44;;;;;;;14.90;2.97;;;12.60;99.90;;;;;;5128918;27;40054;-64
2021/12/31 03:36:11;;;;;;;14.57;2.83;;;12.50;99.90;;;;;;5129798;27;36027;-62
2021/12/31 03:38:38;;;;;;;16.33;3.25;;;12.50;99.90;;;;;;5128068;27;37869;-63
2021/12/31 03:41:06;;;;;;;10.13;2.95;;;12.60;99.90;;;;;;5128115;27;38221;-63
2021/12/31 03:43:33;;;;;;;10.00;3.05;;;12.50;99.90;;;;;;5129226;27;37519;-63
2021/12/31 03:46:00;;;;;;;11.07;2.47;;;12.50;99.90;;;;;;5129123;27;40279;-62
2021/12/31 03:48:29;;;;;;;12.15;2.72;;;12.50;99.90;;;;;;5128216;27;36333;-63
2021/12/31 03:50:56;;;;;;;11.23;2.90;;;12.60;99.90;;;;;;5127777;27;37774;-63
2021/12/31 03:53:24;;;;;;;9.40;2.42;;;12.50;99.90;;;;;;5128493;27;38305;-63
2021/12/31 03:55:51;;;;;;;10.77;2.63;;;12.50;99.90;;;;;;5128303;27;38136;-63
2021/12/31 03:58:18;;;;;;;15.82;3.05;;;12.60;99.90;;;;;;5129454;27;35143;-63
2021/12/31 04:00:47;;;;;;;13.13;2.70;;;12.60;99.90;;;;;;5128754;27;20156;-63
2021/12/31 04:03:14;;;;;;;10.23;2.10;;;12.50;99.90;;;;;;5128397;27;38474;-63
2021/12/31 04:05:43;;;;;;;13.82;2.45;;;12.50;99.90;;;;;;5128295;27;37889;-63
2021/12/31 04:08:12;;;;;;;11.70;2.95;;;12.50;99.90;;;;;;5128750;27;36400;-60
2021/12/31 04:10:39;;;;;;;9.68;2.10;;;12.60;99.90;;;;;;5128905;27;37467;-60
2021/12/31 04:13:06;;;;;;;12.18;2.33;;;12.50;99.80;;;;;;5127998;27;37411;-60
2021/12/31 04:15:34;;;;;;;11.93;2.50;;;12.50;99.70;;;;;;5129489;27;37437;-60
2021/12/31 04:18:01;;;;;;;8.57;2.17;;;12.60;99.70;;;;;;5129021;27;36947;-60
2021/12/31 04:20:36;;;;;;;11.85;2.45;;;12.60;99.70;;;;;;5128553;27;36102;-60
2021/12/31 04:23:11;;;;;;;12.88;2.63;;;12.60;99.70;;;;;;5128453;27;37803;-60
2021/12/31 04:25:38;;;;;;;10.73;2.50;;;12.60;99.70;;;;;;5127807;27;37494;-60
2021/12/31 04:28:06;;;;;;;13.48;2.38;;;12.60;99.60;;;;;;5129334;27;36546;-60
2021/12/31 04:30:34;;;;;;;10.77;2.45;;;12.60;99.60;;;;;;5128037;27;37716;-60
2021/12/31 04:33:02;;;;;;;9.88;2.40;;;12.60;99.50;;;;;;5128637;27;37158;-60
2021/12/31 04:35:29;;;;;;;16.95;3.22;;;12.60;99.60;;;;;;5128400;27;37328;-60
2021/12/31 04:37:56;;;;;;;8.82;2.35;;;12.60;99.50;;;;;;5127940;27;37883;-60
2021/12/31 04:40:25;;;;;;;10.70;2.40;;;12.70;99.60;;;;;;5128333;27;38917;-60
2021/12/31 04:42:53;;;;;;;13.30;2.30;;;12.70;99.60;;;;;;5127673;27;37759;-60
2021/12/31 04:45:20;;;;;;;12.95;2.58;;;12.70;99.60;;;;;;5128368;27;37232;-60
2021/12/31 04:47:48;;;;;;;12.25;2.97;;;12.70;99.60;;;;;;5128951;27;36188;-60
2021/12/31 04:50:15;;;;;;;10.35;2.95;;;12.70;99.50;;;;;;5127555;27;37555;-60
2021/12/31 04:52:42;;;;;;;13.50;2.47;;;12.70;99.40;;;;;;5128032;27;37877;-60
2021/12/31 04:55:11;;;;;;;9.35;2.85;;;12.80;99.40;;;;;;5127943;27;39208;-61
2021/12/31 04:57:42;;;;;;;13.13;2.63;;;12.80;99.30;;;;;;5128064;27;36536;-61
2021/12/31 05:00:12;;;;;;;14.23;2.50;;;12.80;99.30;;;;;;5125916;27;37756;-64
2021/12/31 05:02:39;;;;;;;10.02;2.78;;;12.80;99.30;;;;;;5127917;27;37525;-64
2021/12/31 05:05:07;;;;;;;8.73;2.20;;;12.90;99.30;;;;;;5127307;27;37254;-64
2021/12/31 05:07:35;;;;;;;8.60;2.08;;;12.90;99.20;;;;;;5127549;27;37408;-64
2021/12/31 05:10:02;;;;;;;9.02;2.50;;;12.80;99.10;;;;;;5127296;27;38757;-64
2021/12/31 05:12:33;;;;;;;7.47;2.03;;;12.80;99.00;;;;;;5126121;27;38314;-64
2021/12/31 05:15:02;;;;;;;13.25;2.60;;;12.80;98.90;;;;;;5127627;27;37563;-64
2021/12/31 05:17:30;;;;;;;7.97;2.47;;;12.80;98.80;;;;;;5127486;27;35121;-64
2021/12/31 05:19:57;;;;;;;11.75;2.35;;;12.80;98.90;;;;;;5127881;27;39278;-64
2021/12/31 05:22:24;;;;;;;8.80;2.10;;;12.80;98.90;;;;;;5127114;27;37931;-64
2021/12/31 05:24:51;;;;;;;6.82;2.00;;;12.70;99.10;;;;;;5130615;27;36186;-64
2021/12/31 05:27:19;;;;;;;11.35;2.63;;;12.70;98.90;;;;;;5130790;27;36519;-64
2021/12/31 05:29:46;;;;;;;8.95;2.05;;;12.70;98.90;;;;;;5131932;27;38395;-64
2021/12/31 05:32:15;;;;;;;7.30;1.92;;;12.70;98.90;;;;;;5131000;27;37887;-64
2021/12/31 05:34:42;;;;;;;8.02;1.73;;;12.70;99.00;;;;;;5129594;27;37307;-64
2021/12/31 05:37:10;;;;;;;8.57;1.95;;;12.60;98.90;;;;;;5130838;27;37968;-64
2021/12/31 05:39:37;;;;;;;5.97;2.72;;;12.60;98.90;;;;;;5130481;27;37382;-64
2021/12/31 05:42:05;;;;;;;7.38;2.08;;;12.60;98.90;;;;;;5130544;27;37880;-64
2021/12/31 05:44:32;;;;;;;9.18;2.10;;;12.60;98.90;;;;;;5130725;27;38940;-64
2021/12/31 05:47:00;;;;;;;12.40;2.55;;;12.60;98.90;;;;;;5130941;27;37858;-64
2021/12/31 05:49:29;;;;;;;9.40;1.92;;;12.60;98.90;;;;;;5130739;27;36337;-64
2021/12/31 05:51:56;;;;;;;21.55;3.15;;;12.60;99.00;;;;;;5131544;27;36406;-64
2021/12/31 05:54:24;;;;;;;6.90;1.55;;;12.60;98.90;;;;;;5131184;27;37470;-64
2021/12/31 05:56:52;;;;;;;8.48;2.10;;;12.60;99.00;;;;;;5130470;27;37917;-64
2021/12/31 05:59:19;;;;;;;10.30;2.40;;;12.60;98.90;;;;;;5130052;27;37343;-64
2021/12/31 06:01:47;;;;;;;6.93;2.08;;;12.60;98.90;;;;;;5128253;27;36513;-64
2021/12/31 06:04:14;;;;;;;6.22;2.08;;;12.60;98.90;;;;;;5130044;27;38464;-64
2021/12/31 06:06:43;;;;;;;6.30;2.00;;;12.60;98.90;;;;;;5130829;27;37555;-64
2021/12/31 06:09:12;;;;;;;9.02;1.98;;;12.70;98.80;;;;;;5130555;27;38673;-64
2021/12/31 06:11:40;;;;;;;7.78;2.05;;;12.70;98.90;;;;;;5129917;27;38760;-64
2021/12/31 06:14:09;;;;;;;10.15;2.10;;;12.70;98.80;;;;;;5131119;27;38196;-64
2021/12/31 06:16:38;;;;;;;5.60;2.20;;;12.70;98.70;;;;;;5130567;27;37620;-64
2021/12/31 06:19:06;;;;;;;8.52;2.00;;;12.70;98.70;;;;;;5129990;27;37689;-64
2021/12/31 06:21:34;;;;;;;7.07;1.80;;;12.70;98.70;;;;;;5129243;27;38701;-64
2021/12/31 06:24:03;;;;;;;8.20;2.20;;;12.70;98.80;;;;;;5129992;27;38616;-64
2021/12/31 06:26:31;;;;;;;4.80;1.50;;;12.70;98.60;;;;;;5130563;27;36666;-65
2021/12/31 06:28:58;;;;;;;7.75;2.00;;;12.70;98.60;;;;;;5130908;27;39243;-63
2021/12/31 06:31:26;;;;;;;5.47;2.00;;;12.70;98.40;;;;;;5129026;27;36462;-64
2021/12/31 06:33:53;;;;;;;9.70;3.20;;;12.70;98.30;;;;;;5130045;27;35998;-63
2021/12/31 06:36:21;;;;;;;8.98;2.10;;;12.70;98.30;;;;;;5130447;27;36373;-64
2021/12/31 06:38:50;;;;;;;5.78;1.90;;;12.70;98.30;;;;;;5130223;27;37532;-64
2021/12/31 06:41:20;;;;;;;7.10;1.77;;;12.70;98.30;;;;;;5130029;27;37587;-64
2021/12/31 06:43:47;;;;;;;5.82;1.60;;;12.70;98.30;;;;;;5130428;27;37366;-63
2021/12/31 06:46:15;;;;;;;5.90;1.98;;;12.70;98.30;;;;;;5129630;27;37231;-63
2021/12/31 06:48:42;;;;;;;8.18;1.75;;;12.80;98.20;;;;;;5130969;27;36252;-63
2021/12/31 06:51:10;;;;;;;5.85;1.75;;;12.70;98.20;;;;;;5130331;27;39292;-63
2021/12/31 06:53:38;;;;;;;8.40;1.90;;;12.70;98.20;;;;;;5129761;27;37552;-63
2021/12/31 06:56:05;;;;;;;9.82;2.42;;;12.70;98.10;;;;;;5129662;27;37427;-64
2021/12/31 06:58:34;;;;;;;6.32;2.13;;;12.70;98.10;;;;;;5130354;27;38008;-63
2021/12/31 07:01:02;;;;;;;5.78;2.28;;;12.70;98.00;;;;;;5128559;27;38419;-63
2021/12/31 07:03:31;;;;;;;8.30;2.30;;;12.70;98.00;;;;;;5129648;27;38371;-63
2021/12/31 07:05:58;;;;;;;5.57;1.80;;;12.70;98.00;;;;;;5129922;27;36197;-63
2021/12/31 07:08:26;;;;;;;6.40;1.85;;;12.70;98.00;;;;;;5130515;27;37928;-63
2021/12/31 07:10:53;;;;;;;5.93;2.35;;;12.70;98.20;;;;;;5128899;27;38547;-63
2021/12/31 07:13:21;;;;;;;6.68;2.17;;;12.70;98.00;;;;;;5129021;27;35986;-63
2021/12/31 07:15:50;;;;;;;5.93;2.22;;;12.70;98.00;;;;;;5129237;27;36590;-63
2021/12/31 07:18:18;;;;;;;5.15;1.88;;;12.70;97.90;;;;;;5130093;27;36332;-63
2021/12/31 07:20:46;;;;;;;7.60;1.95;;;12.70;97.80;;;;;;5128062;27;36517;-63
2021/12/31 07:23:15;;;;;;;6.80;2.30;;;12.70;97.80;;;;;;5129444;27;37516;-63
2021/12/31 07:25:43;;;;;;;6.82;2.05;;;12.70;97.80;;;;;;5129408;27;36464;-63
2021/12/31 07:28:12;;;;;;;8.38;2.47;;;12.70;97.70;;;;;;5128496;27;39141;-63
2021/12/31 07:30:40;;;;;;;5.95;1.63;;;12.70;97.70;;;;;;5129433;27;36662;-63
2021/12/31 07:33:15;;;;;;;8.18;2.17;;;12.60;97.70;;;;;;5128584;27;37573;-63
2021/12/31 07:35:42;;;;;;;5.90;1.70;;;12.50;97.50;;;;;;5129711;27;36675;-63
2021/12/31 07:38:18;;;;;;;7.72;2.17;;;12.50;97.70;;;;;;5129596;27;37393;-63
2021/12/31 07:40:45;;;;;;;4.95;1.73;;;12.50;97.70;;;;;;5129502;27;37602;-62
2021/12/31 07:43:13;;;;;;;5.47;1.90;;;12.50;97.70;;;;;;5128998;27;37557;-63
2021/12/31 07:45:41;;;;;;;5.72;1.90;;;12.50;97.70;;;;;;5129302;27;36627;-63
2021/12/31 07:48:10;;;;;;;8.65;2.15;;;12.50;97.80;;;;;;5128633;27;38941;-62
2021/12/31 07:50:38;;;;;;;5.15;2.05;;;12.40;97.80;;;;;;5128435;27;38851;-61
2021/12/31 07:53:06;;;;;;;8.68;1.80;;;12.50;97.80;;;;;;5127961;27;38266;-61
2021/12/31 07:55:34;;;;;;;7.40;2.15;;;12.50;97.70;;;;;;5129562;27;35269;-61
2021/12/31 07:58:02;;;;;;;6.88;2.00;;;12.50;97.70;;;;;;5129273;27;36124;-61
2021/12/31 08:00:29;;;;;;;5.68;1.92;;;12.50;97.70;;;;;;5129253;27;37804;-61
2021/12/31 08:02:59;;;;;;;9.73;3.00;;;12.60;97.60;;;;;;5128644;27;37289;-61
2021/12/31 08:05:29;;;;;;;5.70;1.77;;;12.60;97.60;;;;;;5128686;27;37258;-61
2021/12/31 08:07:56;;;;;;;7.60;2.05;;;12.60;97.50;;;;;;5129348;27;37836;-61
2021/12/31 08:10:24;;;;;;;8.82;2.53;;;12.60;97.50;;;;;;5128809;27;38069;-61
2021/12/31 08:12:51;;;;;;;5.90;1.95;;;12.60;97.40;;;;;;5128619;27;38136;-61
2021/12/31 08:15:19;;;;;;;5.53;1.85;;;12.60;97.40;;;;;;5128248;27;36253;-61
2021/12/31 08:17:46;;;;;;;10.82;2.05;;;12.60;97.50;;;;;;5128725;27;37584;-61
2021/12/31 08:20:13;;;;;;;4.97;2.15;;;12.60;97.40;;;;;;5129324;27;38640;-61
2021/12/31 08:22:42;;;;;;;7.18;1.75;;;12.60;97.40;;;;;;5127625;27;36014;-61
2021/12/31 08:25:10;;;;;;;6.57;2.00;;;12.60;97.40;;;;;;5128325;27;35346;-61
2021/12/31 08:27:37;;;;;;;10.63;2.13;;;12.60;97.40;;;;;;5128220;27;37558;-61
2021/12/31 08:30:07;;;;;;;6.00;1.85;;;12.70;97.50;;;;;;5128183;27;39528;-61
2021/12/31 08:32:35;;;;;;;6.80;1.90;;;12.70;97.40;;;;;;5128248;27;36060;-61
2021/12/31 08:35:02;;;;;;;8.95;2.10;;;12.70;97.40;;;;;;5128091;27;36698;-61
2021/12/31 08:37:30;;;;;;;6.13;2.03;;;12.70;97.60;;;;;;5127682;27;37565;-61
2021/12/31 08:39:59;;;;;;;11.48;2.90;;;12.70;97.40;;;;;;5128148;27;36621;-61
2021/12/31 08:42:26;;;;;;;7.38;2.08;;;12.70;97.40;;;;;;5128144;27;37357;-61
2021/12/31 08:44:55;;;;;;;6.07;1.88;;;12.70;97.20;;;;;;5128613;27;35200;-61
2021/12/31 08:47:22;;;;;;;7.28;2.22;;;12.80;97.30;;;;;;5127756;27;39050;-61
2021/12/31 08:49:49;;;;;;;10.65;1.80;;;12.80;97.20;;;;;;5128028;27;38500;-61
2021/12/31 08:52:17;;;;;;;10.07;3.20;;;12.80;97.30;;;;;;5128628;27;36334;-61
2021/12/31 08:54:44;;;;;;;6.35;2.08;;;12.80;97.30;;;;;;5127392;27;36701;-63
2021/12/31 08:57:13;;;;;;;8.43;2.10;;;12.80;97.30;;;;;;5127287;27;37785;-63
2021/12/31 08:59:40;;;;;;;10.48;2.63;;;12.80;97.30;;;;;;5132079;27;37700;-63
2021/12/31 09:02:08;;;;;;;5.65;1.77;;;12.80;97.30;;;;;;5133259;27;37108;-63
2021/12/31 09:04:35;;;;;;;6.22;2.00;;;12.80;97.20;;;;;;5133532;27;35185;-62
2021/12/31 09:07:03;;;;;;;7.88;1.92;;;12.80;97.20;;;;;;5132439;27;38218;-63
2021/12/31 09:09:30;;;;;;;7.88;2.42;;;12.80;97.20;;;;;;5132462;27;39437;-61
2021/12/31 09:11:58;;;;;;;5.32;1.70;;;12.80;97.10;;;;;;5132657;27;37246;-61
2021/12/31 09:14:27;;;;;;;4.55;1.92;;;12.70;97.10;;;;;;5133986;27;37548;-61
2021/12/31 09:16:54;;;;;;;5.78;1.92;;;12.70;97.10;;;;;;5133253;27;37597;-61
2021/12/31 09:19:22;;;;;;;10.10;2.50;;;12.70;97.20;;;;;;5133900;27;37875;-61
2021/12/31 09:21:49;;;;;;;5.70;2.00;;;12.70;97.20;;;;;;5134671;27;35921;-61
2021/12/31 09:24:16;;;;;;;10.48;2.85;;;12.70;97.20;;;;;;5134239;27;37527;-61
2021/12/31 09:26:43;;;;;;;6.55;2.50;;;12.70;97.20;;;;;;5134586;27;37477;-61
2021/12/31 09:29:11;;;;;;;7.72;2.17;;;12.70;97.20;;;;;;5134242;27;36048;-63
2021/12/31 09:31:39;;;;;;;7.03;2.30;;;12.70;97.20;;;;;;5133898;27;38219;-63
2021/12/31 09:34:07;;;;;;;10.70;2.90;;;12.70;97.10;;;;;;5134317;27;36429;-62
2021/12/31 09:36:34;;;;;;;8.18;2.85;;;12.70;97.00;;;;;;5134713;27;38081;-63
2021/12/31 09:39:01;;;;;;;4.18;1.63;;;12.70;97.00;;;;;;5134291;27;37770;-62
2021/12/31 09:41:29;;;;;;;7.13;2.40;;;12.70;97.00;;;;;;5134440;27;38475;-63
2021/12/31 09:43:56;;;;;;;11.05;2.10;;;12.70;96.90;;;;;;5134910;27;35069;-62
2021/12/31 09:46:23;;;;;;;6.70;2.25;;;12.70;96.90;;;;;;5134267;27;38664;-63
2021/12/31 09:48:52;;;;;;;10.80;2.22;;;12.70;96.90;;;;;;5134624;27;37645;-63
2021/12/31 09:51:21;;;;;;;9.57;2.10;;;12.70;96.90;;;;;;5133917;27;38635;-62
2021/12/31 09:53:49;;;;;;;8.50;2.40;;;12.70;96.90;;;;;;5134696;27;37077;-62
2021/12/31 09:56:16;;;;;;;9.30;2.50;;;12.70;96.90;;;;;;5133006;27;37428;-62
2021/12/31 09:58:44;;;;;;;10.10;3.65;;;12.60;97.00;;;;;;5134370;27;37942;-61
2021/12/31 10:01:11;;;;;;;7.47;2.50;;;12.60;97.40;;;;;;5133647;27;37199;-60
2021/12/31 10:03:39;;;;;;;7.82;2.35;;;12.50;97.50;;;;;;5133936;27;37669;-60
2021/12/31 10:06:12;;;;;;;8.48;2.63;;;12.50;97.70;;;;;;5134263;27;37386;-61
2021/12/31 10:08:40;;;;;;;;;;;12.40;98.10;;;;;;5135465;27;38233;-63
2021/12/31 10:11:10;;;;;;;9.73;4.30;;;12.40;98.50;;;;;;5130830;27;38222;-62
2021/12/31 10:13:41;;;;;;;11.55;5.18;;;12.30;98.40;;;;;;5131130;27;36176;-63
2021/12/31 10:16:20;;;;;;;13.60;5.35;;;12.30;98.70;;;;;;5130685;27;39609;-63
2021/12/31 10:18:48;;;;;;;15.48;5.30;;;12.30;98.80;;;;;;5129857;27;37860;-63
2021/12/31 10:21:20;;;;;;;11.00;4.03;;;12.30;98.90;;;;;;5130097;27;36368;-63
2021/12/31 10:23:48;;;;;;;12.25;4.53;;;12.30;99.00;;;;;;5131006;27;35245;-63
2021/12/31 10:26:18;;;;;;;9.73;3.90;;;12.20;99.10;;;;;;5130499;27;36294;-63
2021/12/31 10:28:56;;;;;;;9.43;4.20;;;12.20;99.20;;;;;;5131281;27;38521;-63
2021/12/31 10:31:24;;;;;;;9.00;4.13;;;12.20;99.30;;;;;;5130779;27;38507;-62
2021/12/31 10:33:52;;;;;;;9.88;3.78;;;12.20;99.40;;;;;;5130803;27;36568;-62
2021/12/31 10:36:38;;;;;;;12.20;3.25;;;12.20;99.40;;;;;;5130317;27;37562;-63
2021/12/31 10:39:27;;;;;;;7.47;3.08;;;12.20;99.50;;;;;;5130730;27;36273;-63
2021/12/31 10:42:07;;;;;;;9.82;2.83;;;12.20;99.50;;;;;;5125464;27;37196;-63
2021/12/31 10:44:48;;;;;;;10.32;3.20;;;12.20;99.50;;;;;;5130794;27;37395;-63
2021/12/31 10:47:17;;;;;;;9.65;3.47;;;12.20;99.50;;;;;;5130484;27;39481;-63
2021/12/31 10:50:13;;;;;;;9.55;2.85;;;12.20;99.60;;;;;;5130478;27;36266;-63
2021/12/31 10:52:52;;;;;;;10.77;2.33;;;12.20;99.70;;;;;;5129400;27;36070;-63
2021/12/31 10:55:24;;;;;;;13.43;3.20;;;12.20;99.70;;;;;;5129631;27;37019;-63
2021/12/31 10:57:53;;;;;;;7.05;2.58;;;12.20;99.70;;;;;;5129614;27;37832;-63
2021/12/31 11:00:24;;;;;;;11.20;2.78;;;12.20;99.70;;;;;;5129434;27;36716;-63
2021/12/31 11:02:51;;;;;;;9.55;3.05;;;12.30;99.70;;;;;;5128707;27;38530;-63
2021/12/31 11:05:20;;;;;;;7.93;2.65;;;12.20;99.60;;;;;;5130420;27;37633;-63
2021/12/31 11:07:49;;;;;;;6.63;2.72;;;12.20;99.80;;;;;;5128612;27;38134;-63
2021/12/31 11:10:19;;;;;;;9.85;2.80;;;12.20;99.60;;;;;;5129172;27;39091;-63
2021/12/31 11:12:48;;;;;;;8.48;3.10;;;12.20;99.60;;;;;;5130184;27;36076;-63
2021/12/31 11:15:16;;;;;;;9.55;3.08;;;12.20;99.60;;;;;;5130192;27;36831;-63
2021/12/31 11:17:44;;;;;;;9.05;2.92;;;12.20;99.70;;;;;;5129585;27;38287;-63
2021/12/31 11:20:13;;;;;;;12.30;3.10;;;12.20;99.80;;;;;;5127942;27;36345;-63
2021/12/31 11:22:40;;;;;;;9.60;3.25;;;12.20;99.90;;;;;;5127645;27;37699;-63
2021/12/31 11:25:24;;;;;;;14.20;3.90;;;12.10;99.90;;;;;;5128834;27;36858;-61
2021/12/31 11:27:52;;;;;;;12.02;3.28;;;12.10;99.90;;;;;;5129213;27;39474;-61
2021/12/31 11:30:28;;;;;;;12.57;3.67;;;12.10;99.90;;;;;;5129160;27;37387;-61
2021/12/31 11:32:59;;;;;;;13.07;3.58;;;12.10;99.90;;;;;;5129076;27;38002;-61
2021/12/31 11:35:31;;;;;;;8.60;3.92;;;12.10;99.90;;;;;;5129603;27;37472;-61
2021/12/31 11:37:59;;;;;;;11.80;3.10;;;12.10;99.90;;;;;;5129549;27;37540;-61
2021/12/31 11:40:30;;;;;;;7.22;3.22;;;12.10;99.90;;;;;;5128823;27;39296;-61
2021/12/31 11:43:23;;;;;;;11.43;4.00;;;12.10;99.90;;;;;;5129016;27;38452;-60
2021/12/31 11:46:43;;;;;;;8.65;3.80;;;12.10;99.90;;;;;;5129023;27;38024;-61
2021/12/31 11:49:21;;;;;;;11.27;3.35;;;12.00;99.90;;;;;;5129481;27;37641;-61
2021/12/31 11:52:05;;;;;;;10.82;3.60;;;12.00;99.90;;;;;;5129471;27;39054;-61
2021/12/31 11:54:33;;;;;;;10.77;3.10;;;12.00;99.90;;;;;;5128855;27;37624;-61
2021/12/31 11:57:16;;;;;;;10.30;3.42;;;12.00;99.90;;;;;;5129338;27;37061;-61
2021/12/31 11:59:46;;;;;;;11.60;3.25;;;11.90;99.90;;;;;;5128824;27;38671;-61
2021/12/31 12:02:17;;;;;;;12.00;3.83;;;11.90;99.90;;;;;;5129222;27;38808;-62
2021/12/31 12:04:46;;;;;;;10.48;3.70;;;11.90;99.90;;;;;;5128857;27;36262;-63
2021/12/31 12:07:33;;;;;;;10.95;3.85;;;11.90;99.90;;;;;;5128623;27;37234;-63
2021/12/31 12:10:25;;;;;;;6.68;3.05;;;11.90;99.90;;;;;;5129432;27;38203;-62
2021/12/31 12:13:19;;;;;;;7.65;3.45;;;11.90;99.90;;;;;;5128985;27;36479;-63
2021/12/31 12:15:46;;;;;;;;;;;11.90;99.90;;;;;;5128186;27;37859;-63
2021/12/31 12:18:14;;;;;;;10.05;3.40;;;12.00;99.90;;;;;;5128912;27;35474;-63
2021/12/31 12:20:43;;;;;;;9.95;3.10;;;11.90;99.90;;;;;;5128730;27;37818;-63
2021/12/31 12:23:18;;;;;;;10.82;3.60;;;11.90;99.90;;;;;;5127632;27;37362;-63
2021/12/31 12:25:45;;;;;;;8.43;3.15;;;11.90;99.90;;;;;;5128978;27;38464;-62
2021/12/31 12:28:18;;;;;;;7.22;3.10;;;11.90;99.90;;;;;;5128952;27;36545;-62
2021/12/31 12:30:50;;;;;;;9.45;2.78;;;11.90;99.90;;;;;;5128066;27;37529;-63
2021/12/31 12:33:25;;;;;;;7.22;2.22;;;11.90;99.90;;;;;;5127609;27;38838;-63
2021/12/31 12:35:55;;;;;;;9.43;2.80;;;12.00;99.90;;;;;;5127932;27;38199;-61
2021/12/31 12:38:24;;;;;;;8.23;2.38;;;12.00;99.90;;;;;;5128979;27;35225;-61
2021/12/31 12:40:55;;;;;;;6.45;3.50;;;12.00;99.90;;;;;;5127152;27;37504;-61
2021/12/31 12:43:25;;;;;;;7.72;3.35;;;11.90;99.90;;;;;;5126128;27;36213;-62
2021/12/31 12:45:54;;;;;;;8.13;3.95;;;11.90;99.90;;;;;;5128721;27;38749;-62
2021/12/31 12:48:35;;;;;;;6.47;2.97;;;11.90;99.90;;;;;;5128174;27;36756;-62
2021/12/31 12:51:04;;;;;;;5.85;2.70;;;11.90;99.90;;;;;;5127811;27;35913;-61
2021/12/31 12:53:33;;;;;;;7.07;3.20;;;11.90;99.90;;;;;;5126991;27;36583;-62
2021/12/31 12:56:05;;;;;;;7.00;2.30;;;11.90;99.90;;;;;;5127388;27;37565;-61